Time;durP1;ratioP1;P1;durP2;ratioP2;P2;SDS_P1;SDS_P2;PMS_P1;PMS_P2;Temp;Humidity;BMP_temperature;BMP_pressure;BME280_temperature;BME280_humidity;BME280_pressure;Samples;Min_cycle;Max_cycle;Signal;HPM_P1;HPM_P2
2022/05/29 00:00:51;;;;;;;1.53;1.20;;;18.00;94.80;;;18.61;46.70;101299.41;4999405;27;115085;-72
2022/05/29 00:03:18;;;;;;;1.93;1.43;;;18.00;95.10;;;18.64;46.88;101301.09;4996762;27;97044;-72
2022/05/29 00:05:46;;;;;;;1.70;1.30;;;18.10;94.70;;;18.66;46.68;101300.06;4997990;27;97661;-72
2022/05/29 00:08:24;;;;;;;2.57;1.43;;;18.10;94.80;;;18.68;46.69;101298.16;4995280;27;97203;-72
2022/05/29 00:10:51;;;;;;;2.00;1.53;;;18.10;94.70;;;18.70;46.76;101298.91;4999330;27;98477;-72
2022/05/29 00:13:16;;;;;;;1.60;1.50;;;18.20;94.70;;;18.72;46.77;101294.34;5010631;27;99189;-72
2022/05/29 00:15:42;;;;;;;2.83;1.60;;;18.20;94.60;;;18.73;46.65;101296.06;5001685;27;108022;-72
2022/05/29 00:18:09;;;;;;;2.23;1.63;;;18.20;94.00;;;18.73;46.73;101293.38;5001814;27;105378;-72
2022/05/29 00:20:36;;;;;;;1.80;1.60;;;18.20;94.80;;;18.77;46.61;101295.88;5000750;27;100093;-72
2022/05/29 00:23:03;;;;;;;2.00;1.40;;;18.20;94.10;;;18.74;46.66;101294.25;5004940;27;98144;-71
2022/05/29 00:25:29;;;;;;;2.50;1.50;;;18.20;94.00;;;18.75;46.71;101292.44;5000119;27;97249;-72
2022/05/29 00:27:54;;;;;;;2.40;1.60;;;18.20;95.30;;;18.76;46.54;101286.13;5004278;27;116670;-72
2022/05/29 00:30:20;;;;;;;2.20;1.27;;;18.20;94.90;;;18.76;46.78;101288.81;5001675;27;99641;-72
2022/05/29 00:32:46;;;;;;;2.37;1.43;;;18.20;94.10;;;18.78;46.76;101292.25;5004264;27;98358;-72
2022/05/29 00:35:12;;;;;;;2.90;1.87;;;18.20;94.70;;;18.78;46.61;101293.09;5001190;27;116967;-72
2022/05/29 00:37:40;;;;;;;2.93;1.50;;;18.30;94.40;;;18.78;46.54;101281.56;5004184;27;117924;-72
2022/05/29 00:40:42;;;;;;;3.00;1.50;;;18.20;94.60;;;18.81;46.52;101281.41;5002115;27;98970;-72
2022/05/29 00:43:08;;;;;;;2.47;1.47;;;18.30;95.00;;;18.80;46.37;101279.66;5000660;27;101074;-72
2022/05/29 00:45:53;;;;;;;3.00;1.47;;;18.30;94.20;;;18.82;46.32;101277.78;4999886;27;104559;-72
2022/05/29 00:48:20;;;;;;;3.50;1.70;;;18.30;94.30;;;18.78;46.69;101277.06;5001299;27;97680;-72
2022/05/29 00:50:48;;;;;;;2.40;1.27;;;18.20;93.60;;;18.77;46.56;101269.16;5005229;27;97089;-72
2022/05/29 00:53:15;;;;;;;2.63;1.63;;;18.20;94.50;;;18.75;46.77;101269.25;4998953;27;98827;-72
2022/05/29 00:55:56;;;;;;;2.43;1.50;;;18.10;93.90;;;18.72;46.88;101264.94;5002666;27;97589;-72
2022/05/29 00:58:23;;;;;;;2.90;1.50;;;18.10;95.10;;;18.71;46.90;101265.91;5004369;27;97544;-72
2022/05/29 01:00:50;;;;;;;1.63;1.30;;;18.10;95.40;;;18.71;46.85;101271.25;5004566;27;98074;-71
2022/05/29 01:03:16;;;;;;;1.33;1.10;;;18.10;95.00;;;18.72;46.77;101262.28;5016090;27;97386;-74
2022/05/29 01:05:42;;;;;;;1.80;1.50;;;18.20;94.90;;;18.72;46.73;101267.63;5003332;27;97361;-72
2022/05/29 01:08:21;;;;;;;3.07;1.60;;;18.20;94.20;;;18.70;46.80;101258.84;5003142;27;97349;-72
2022/05/29 01:10:50;;;;;;;2.43;1.57;;;18.10;93.90;;;18.64;47.08;101266.34;4997237;27;102985;-72
2022/05/29 01:13:38;;;;;;;2.60;1.80;;;18.00;94.50;;;18.59;47.23;101260.38;4996755;27;98748;-72
2022/05/29 01:16:56;;;;;;;6.47;4.93;;;17.80;95.00;;;18.53;47.29;101256.28;5002299;27;97612;-72
2022/05/29 01:20:09;;;;;;;9.70;7.37;;;17.70;95.10;;;18.49;47.22;101252.06;4949980;27;97990;-72
2022/05/29 01:23:21;;;;;;;3.17;2.30;;;17.70;94.70;;;18.46;47.51;101246.03;4951396;27;101727;-72
2022/05/29 01:26:24;;;;;;;3.70;2.87;;;17.70;95.30;;;18.43;47.62;101252.44;5016632;27;100460;-72
2022/05/29 01:28:56;;;;;;;3.63;2.63;;;17.70;95.10;;;18.38;47.48;101251.84;4999174;27;97397;-72
2022/05/29 01:32:02;;;;;;;3.63;2.93;;;17.60;95.20;;;18.37;47.76;101251.00;5024681;27;97049;-72
2022/05/29 01:35:02;;;;;;;7.90;6.17;;;17.60;95.50;;;18.33;47.77;101253.91;5014285;27;107165;-72
2022/05/29 01:37:37;;;;;;;2.93;2.60;;;17.50;95.20;;;18.29;47.84;101257.72;5038066;27;100441;-72
2022/05/29 01:40:29;;;;;;;3.90;2.93;;;17.50;95.90;;;18.30;47.98;101254.97;5021581;27;97376;-72
2022/05/29 01:43:15;;;;;;;3.53;2.57;;;17.50;95.70;;;18.29;47.96;101250.56;5014092;27;97688;-72
2022/05/29 01:45:56;;;;;;;3.70;2.70;;;17.60;95.90;;;18.29;47.95;101247.91;5018753;27;101895;-71
2022/05/29 01:48:36;;;;;;;5.23;4.30;;;17.60;95.40;;;18.29;47.86;101247.91;5018487;27;97042;-72
2022/05/29 01:51:24;;;;;;;3.70;2.77;;;17.60;94.80;;;18.27;47.95;101246.28;5022879;27;96692;-72
2022/05/29 01:54:24;;;;;;;3.17;2.67;;;17.50;95.70;;;18.24;48.18;101243.78;5017051;27;97311;-72
2022/05/29 01:57:03;;;;;;;3.40;2.83;;;17.50;96.10;;;18.24;47.80;101249.13;5016351;27;101381;-72
2022/05/29 01:59:43;;;;;;;3.50;2.77;;;17.50;95.80;;;18.25;48.04;101245.50;5015511;27;102776;-72
2022/05/29 02:02:13;;;;;;;4.90;2.60;;;17.50;96.30;;;18.25;47.96;101235.69;5004137;27;97318;-72
2022/05/29 02:04:46;;;;;;;3.93;2.50;;;17.50;96.10;;;18.24;48.02;101235.78;5024257;27;96588;-72
2022/05/29 02:10:18;;;;;;;3.57;2.57;;;17.50;96.00;;;18.29;48.18;101233.69;5021079;27;98060;-72
2022/05/29 02:12:53;;;;;;;4.33;2.53;;;17.60;96.30;;;18.24;47.91;101230.44;5027828;27;97254;-72
2022/05/29 02:15:28;;;;;;;2.20;1.90;;;17.50;95.40;;;18.25;48.18;101232.16;5014083;27;96935;-72
2022/05/29 02:17:59;;;;;;;2.97;2.00;;;17.50;96.20;;;18.25;48.02;101240.16;5016366;27;98511;-72
2022/05/29 02:20:30;;;;;;;3.80;2.20;;;17.50;95.60;;;18.26;48.21;101231.19;4999040;27;100802;-72
2022/05/29 02:23:39;;;;;;;3.57;2.43;;;17.50;96.50;;;18.28;48.19;101223.97;5019037;27;97255;-72
2022/05/29 02:26:11;;;;;;;3.20;2.30;;;17.60;95.90;;;18.27;48.03;101222.25;5004851;28;98729;-72
2022/05/29 02:28:41;;;;;;;3.13;2.20;;;17.60;95.50;;;18.26;48.22;101220.53;5017417;27;101604;-71
2022/05/29 02:31:32;;;;;;;3.13;2.23;;;17.50;96.50;;;18.29;48.15;101220.34;5026566;27;97472;-71
2022/05/29 02:34:13;;;;;;;2.93;2.30;;;17.50;95.80;;;18.28;48.11;101213.28;5020835;27;97537;-72
2022/05/29 02:37:16;;;;;;;3.10;2.30;;;17.50;96.60;;;18.27;48.15;101211.56;5017528;27;97528;-72
2022/05/29 02:39:55;;;;;;;2.30;2.10;;;17.50;95.90;;;18.27;48.09;101215.09;5016393;27;101609;-72
2022/05/29 02:42:42;;;;;;;3.27;2.20;;;17.50;96.60;;;18.30;48.10;101211.38;5033158;27;97750;-72
2022/05/29 02:45:32;;;;;;;3.00;2.23;;;17.60;97.00;;;18.34;47.95;101212.91;5022674;27;97152;-72
2022/05/29 02:48:42;;;;;;;6.93;4.87;;;17.70;96.30;;;18.36;48.09;101206.50;5016591;27;97181;-72
2022/05/29 02:51:38;;;;;;;4.77;3.37;;;17.70;96.00;;;18.37;48.00;101202.03;4971162;28;103314;-72
2022/05/29 02:54:04;;;;;;;4.23;2.97;;;17.70;95.70;;;18.34;48.15;101207.56;5015899;27;99824;-72
2022/05/29 02:56:30;;;;;;;5.80;4.30;;;17.70;95.90;;;18.34;48.17;101202.22;5006162;27;96877;-72
2022/05/29 02:58:58;;;;;;;4.20;2.80;;;17.60;95.70;;;18.33;47.84;101201.34;5020003;27;97412;-72
2022/05/29 03:02:05;;;;;;;4.53;3.37;;;17.60;95.80;;;18.35;47.97;101198.59;5014725;27;117877;-72
2022/05/29 03:04:44;;;;;;;3.80;2.90;;;17.60;96.90;;;18.35;48.07;101198.59;4953182;28;97074;-72
2022/05/29 03:07:24;;;;;;;5.63;3.73;;;17.70;96.30;;;18.37;48.12;101191.34;5015028;27;97591;-71
2022/05/29 03:10:24;;;;;;;4.80;3.40;;;17.70;95.80;;;18.38;47.93;101193.09;5020753;27;98387;-72
2022/05/29 03:13:09;;;;;;;4.67;2.83;;;17.70;96.00;;;18.40;48.08;101196.53;5029702;27;102890;-72
2022/05/29 03:16:04;;;;;;;4.53;3.10;;;17.80;96.60;;;18.43;47.88;101202.53;5022251;27;102513;-72
2022/05/29 03:19:09;;;;;;;3.73;2.80;;;17.80;96.40;;;18.45;47.88;101197.09;5016108;27;97418;-72
2022/05/29 03:22:08;;;;;;;4.57;3.33;;;17.80;96.50;;;18.48;47.79;101196.91;5009363;27;96987;-72
2022/05/29 03:25:17;;;;;;;4.97;3.20;;;17.90;96.60;;;18.52;47.95;101194.94;4999333;27;96575;-72
2022/05/29 03:27:49;;;;;;;4.40;3.03;;;17.90;96.30;;;18.51;47.75;101199.38;5002167;27;99747;-72
2022/05/29 03:30:33;;;;;;;3.53;2.93;;;17.90;96.20;;;18.54;47.42;101206.38;5014610;27;97331;-72
2022/05/29 03:33:06;;;;;;;3.87;3.10;;;18.00;95.90;;;18.54;47.50;101199.22;5010609;27;96964;-72
2022/05/29 03:35:51;;;;;;;5.30;3.03;;;18.00;96.00;;;18.53;47.57;101197.53;5020354;27;98671;-76
2022/05/29 03:38:17;;;;;;;4.97;3.33;;;17.90;95.70;;;18.47;47.84;101195.19;5032682;27;97217;-74
2022/05/29 03:40:43;;;;;;;3.53;2.63;;;17.80;96.40;;;18.45;47.77;101194.44;5028460;27;97195;-75
2022/05/29 03:43:09;;;;;;;3.13;2.77;;;17.80;96.20;;;18.41;47.89;101195.56;5024795;27;102231;-74
2022/05/29 03:45:34;;;;;;;4.57;3.27;;;17.70;95.90;;;18.37;48.09;101196.69;5022796;27;97221;-74
2022/05/29 03:48:01;;;;;;;3.37;2.47;;;17.60;96.80;;;18.36;47.89;101194.97;5020347;27;98276;-75
2022/05/29 03:50:27;;;;;;;5.37;3.27;;;17.70;96.40;;;18.38;47.79;101187.75;5016040;27;97507;-75
2022/05/29 03:52:54;;;;;;;5.00;2.50;;;17.70;95.70;;;18.35;48.16;101196.78;5032055;27;97360;-74
2022/05/29 03:55:24;;;;;;;4.67;2.13;;;17.70;96.40;;;18.35;48.28;101193.25;5027640;27;97034;-75
2022/05/29 03:57:51;;;;;;;6.47;3.17;;;17.70;97.00;;;18.38;47.98;101198.44;4998413;28;97567;-74
2022/05/29 04:00:18;;;;;;;4.80;2.83;;;17.70;96.90;;;18.41;48.15;101192.91;4996319;27;97263;-74
2022/05/29 04:02:45;;;;;;;5.13;3.40;;;17.80;97.10;;;18.47;47.81;101191.66;5008908;27;96691;-76
2022/05/29 04:05:21;;;;;;;3.83;2.90;;;17.90;97.00;;;18.50;47.82;101184.31;5031397;27;100463;-75
2022/05/29 04:13:21;;;;;;;4.30;2.43;;;18.40;96.30;;;18.76;47.23;101182.78;5018575;27;96950;-75
2022/05/29 04:15:47;;;;;;;6.93;2.60;;;18.50;95.50;;;18.78;47.16;101174.66;5019556;27;127576;-74
2022/05/29 04:18:19;;;;;;;5.17;2.70;;;18.50;95.10;;;18.83;47.14;101178.78;5027335;27;113203;-74
2022/05/29 04:20:45;;;;;;;5.63;3.20;;;18.60;95.90;;;18.81;46.79;101172.69;5017272;27;96626;-75
2022/05/29 04:23:12;;;;;;;6.73;3.30;;;18.50;95.10;;;18.82;46.72;101176.22;5004076;27;96729;-75
2022/05/29 04:25:38;;;;;;;4.67;2.50;;;18.50;95.90;;;18.88;46.92;101170.47;5000317;27;97956;-74
2022/05/29 04:28:07;;;;;;;4.37;2.77;;;18.60;95.70;;;18.92;46.63;101167.50;5017175;27;97365;-74
2022/05/29 04:30:32;;;;;;;5.23;2.70;;;18.70;95.50;;;19.00;46.35;101164.38;5016031;27;97404;-74
2022/05/29 04:33:01;;;;;;;4.67;2.47;;;18.80;95.30;;;19.01;46.13;101164.25;5031351;27;96877;-75
2022/05/29 04:35:39;;;;;;;5.23;2.30;;;18.80;95.00;;;19.02;46.51;101157.09;5025135;27;97412;-74
2022/05/29 04:38:06;;;;;;;5.33;2.30;;;18.80;95.30;;;18.96;46.16;101155.69;5014388;27;97166;-74
2022/05/29 04:40:32;;;;;;;4.33;2.47;;;18.70;93.60;;;18.90;46.21;101157.88;5021169;27;96789;-74
2022/05/29 04:42:58;;;;;;;5.73;2.60;;;18.50;94.00;;;18.87;46.44;101158.06;5018527;27;96650;-75
2022/05/29 04:45:24;;;;;;;4.73;2.50;;;18.50;95.70;;;18.86;46.62;101156.34;5007621;27;97397;-74
2022/05/29 04:47:50;;;;;;;5.70;2.73;;;18.50;95.50;;;18.88;46.51;101157.09;5012648;27;97177;-75
2022/05/29 04:50:16;;;;;;;6.07;3.03;;;18.50;95.60;;;18.90;46.56;101160.53;5015365;27;97013;-75
2022/05/29 04:52:41;;;;;;;5.83;3.03;;;18.60;95.40;;;18.90;46.31;101152.53;5010283;27;110026;-74
2022/05/29 04:55:08;;;;;;;4.50;2.73;;;18.70;95.10;;;18.87;45.47;101152.72;5017686;27;116698;-74
2022/05/29 04:57:34;;;;;;;5.43;2.53;;;18.60;93.80;;;18.86;46.48;101140.31;5016097;27;97088;-74
2022/05/29 05:00:00;;;;;;;7.23;3.00;;;18.60;95.30;;;18.83;46.16;101148.53;4996512;27;110577;-74
2022/05/29 05:02:27;;;;;;;4.40;2.77;;;18.60;93.80;;;18.81;46.45;101159.31;5017354;27;106191;-75
2022/05/29 05:04:53;;;;;;;4.30;2.60;;;18.50;95.60;;;18.84;46.48;101156.44;5029145;27;97698;-72
2022/05/29 05:07:19;;;;;;;6.17;2.70;;;18.60;95.10;;;18.83;46.65;101151.19;5003807;27;96713;-71
2022/05/29 05:09:46;;;;;;;6.80;2.97;;;18.50;95.30;;;18.79;46.21;101146.97;5025379;27;112999;-75
2022/05/29 05:12:12;;;;;;;6.00;2.90;;;18.50;93.40;;;18.68;46.62;101148.53;5022466;27;97418;-75
2022/05/29 05:14:38;;;;;;;6.07;2.63;;;18.30;95.30;;;18.66;46.92;101144.19;5031488;27;97988;-75
2022/05/29 05:17:04;;;;;;;8.37;2.80;;;18.20;96.10;;;18.66;46.95;101150.44;5020780;27;117427;-74
2022/05/29 05:19:30;;;;;;;8.10;3.20;;;18.30;95.70;;;18.68;46.90;101140.50;5021277;27;96838;-75
2022/05/29 05:21:59;;;;;;;6.90;3.23;;;18.40;95.90;;;18.72;46.76;101142.03;5024053;27;102359;-74
2022/05/29 05:24:25;;;;;;;6.37;3.33;;;18.50;95.70;;;18.75;46.64;101148.13;5008001;27;96985;-74
2022/05/29 05:26:51;;;;;;;5.17;2.93;;;18.50;95.60;;;18.76;46.87;101134.66;5016294;27;123692;-74
2022/05/29 05:29:16;;;;;;;6.23;3.20;;;18.50;95.60;;;18.81;46.43;101147.75;5026901;27;101233;-75
2022/05/29 05:31:42;;;;;;;5.60;3.13;;;18.60;95.50;;;18.85;46.53;101141.28;5041731;27;106691;-74
2022/05/29 05:34:08;;;;;;;6.93;3.93;;;18.70;95.40;;;18.87;46.56;101144.69;5030359;27;123543;-75
2022/05/29 05:36:34;;;;;;;6.27;2.90;;;18.70;95.20;;;18.88;46.33;101141.06;5019389;27;99773;-75
2022/05/29 05:38:59;;;;;;;5.37;3.37;;;18.70;95.20;;;18.93;46.38;101138.94;5025663;27;97427;-75
2022/05/29 05:41:25;;;;;;;5.77;3.30;;;18.80;95.10;;;18.94;46.13;101140.66;5032283;27;98131;-74
2022/05/29 05:43:51;;;;;;;6.53;3.20;;;18.80;95.10;;;18.92;46.44;101139.91;5003097;27;126217;-75
2022/05/29 05:46:18;;;;;;;5.53;2.43;;;18.70;94.90;;;18.89;46.27;101132.94;5026165;27;125008;-74
2022/05/29 05:48:44;;;;;;;7.43;3.37;;;18.60;94.30;;;18.87;46.14;101148.22;5022140;27;97262;-74
2022/05/29 05:51:11;;;;;;;5.33;3.37;;;18.50;94.30;;;18.86;46.48;101135.81;5026294;27;97986;-75
2022/05/29 05:53:39;;;;;;;6.27;3.30;;;18.60;95.10;;;18.92;46.19;101139.91;5017003;27;102732;-74
2022/05/29 05:56:08;;;;;;;5.83;3.10;;;18.70;95.30;;;18.93;46.25;101130.94;5020063;27;97273;-74
2022/05/29 05:58:35;;;;;;;4.83;2.60;;;18.70;95.20;;;18.95;46.29;101142.38;5017863;27;96588;-75
2022/05/29 06:01:09;;;;;;;9.73;3.83;;;18.70;95.10;;;18.99;46.21;101136.78;5026443;27;97031;-74
2022/05/29 06:03:36;;;;;;;6.03;2.80;;;18.80;94.90;;;18.99;46.09;101135.91;5020377;27;100342;-75
2022/05/29 06:06:02;;;;;;;9.37;3.77;;;18.90;94.80;;;18.98;45.07;101134.19;5034971;27;97040;-74
2022/05/29 06:08:28;;;;;;;7.37;2.93;;;18.80;93.20;;;18.91;46.42;101128.38;5016270;27;97200;-75
2022/05/29 06:10:54;;;;;;;7.33;3.50;;;18.60;95.10;;;18.92;46.13;101138.09;5020197;27;96876;-74
2022/05/29 06:13:20;;;;;;;7.27;3.97;;;18.70;94.50;;;18.90;46.60;101136.47;5027123;27;97569;-74
2022/05/29 06:15:46;;;;;;;6.90;3.57;;;18.60;95.20;;;18.91;46.43;101138.19;5030664;27;126290;-75
2022/05/29 06:18:13;;;;;;;5.53;2.93;;;18.60;94.70;;;18.95;46.07;101140.59;5016956;27;96759;-74
2022/05/29 06:20:39;;;;;;;5.63;3.17;;;18.80;95.00;;;18.78;46.40;101137.25;5022159;27;96814;-75
2022/05/29 06:23:05;;;;;;;5.13;2.37;;;18.50;94.90;;;18.75;46.83;101132.94;5022440;27;126228;-75
2022/05/29 06:25:31;;;;;;;7.73;3.27;;;18.30;95.80;;;18.56;46.87;101133.22;4998584;27;129811;-75
2022/05/29 06:27:57;;;;;;;7.33;3.27;;;18.00;96.20;;;18.44;47.56;101133.94;5021369;27;105164;-75
2022/05/29 06:30:26;;;;;;;8.30;3.40;;;17.80;97.10;;;18.36;47.42;101136.22;5017569;27;97196;-74
2022/05/29 06:32:51;;;;;;;6.20;3.50;;;17.70;97.00;;;18.26;48.04;101135.06;5020294;27;96841;-75
2022/05/29 06:35:17;;;;;;;6.37;3.80;;;17.50;97.70;;;18.16;47.73;101141.91;5022719;27;96932;-74
2022/05/29 06:37:43;;;;;;;7.53;3.43;;;17.50;97.10;;;18.15;48.40;101138.38;5021539;27;97128;-75
2022/05/29 06:40:11;;;;;;;6.57;3.17;;;17.40;98.00;;;18.20;48.51;101135.41;5027717;27;110629;-75
2022/05/29 06:42:37;;;;;;;5.97;3.40;;;17.60;97.80;;;18.23;48.35;101136.13;5027576;27;102335;-74
2022/05/29 06:45:05;;;;;;;5.40;2.50;;;17.80;97.00;;;18.28;48.32;101141.19;5030245;27;121464;-75
2022/05/29 06:47:32;;;;;;;6.07;3.67;;;17.80;97.40;;;18.31;47.70;101138.31;5026817;27;97638;-75
2022/05/29 06:49:59;;;;;;;5.00;2.17;;;17.90;96.10;;;18.37;48.11;101148.63;5019396;27;97180;-74
2022/05/29 06:52:29;;;;;;;5.13;3.67;;;18.00;97.10;;;18.34;46.57;101143.47;5011805;27;97100;-74
2022/05/29 06:54:55;;;;;;;4.73;2.73;;;18.00;95.30;;;18.35;48.12;101138.03;5017931;27;97115;-74
2022/05/29 06:57:36;;;;;;;2.97;2.07;;;17.90;96.70;;;18.37;47.78;101138.81;5009221;27;98633;-74
2022/05/29 07:08:48;;;;;;;4.80;2.83;;;18.10;95.30;;;18.46;47.79;101141.88;5020617;27;96982;-75
2022/05/29 07:11:20;;;;;;;3.87;2.20;;;18.10;95.80;;;18.50;47.89;101133.56;5028047;27;96988;-74
2022/05/29 07:13:46;;;;;;;6.87;3.17;;;18.20;96.80;;;18.50;47.58;101138.91;5027563;27;96955;-74
2022/05/29 07:16:12;;;;;;;7.03;4.00;;;18.20;95.70;;;18.37;47.10;101143.28;5028816;27;100692;-74
2022/05/29 07:18:38;;;;;;;6.87;3.63;;;17.80;96.30;;;18.25;48.14;101136.88;5020141;27;115306;-72
2022/05/29 07:21:05;;;;;;;7.20;4.20;;;17.70;97.30;;;18.04;48.31;101131.00;5024574;27;99861;-72
2022/05/29 07:23:33;;;;;;;5.43;3.33;;;17.40;97.20;;;18.10;48.76;101133.31;5014400;27;99048;-72
2022/05/29 07:25:59;;;;;;;5.47;3.50;;;17.40;98.20;;;18.21;48.42;101127.31;5018835;27;97657;-73
2022/05/29 07:28:25;;;;;;;5.80;3.30;;;17.80;97.70;;;18.27;48.23;101134.97;4993259;27;114832;-72
2022/05/29 07:30:52;;;;;;;6.97;4.27;;;17.90;97.30;;;18.25;47.36;101128.00;5017524;27;106405;-72
2022/05/29 07:33:18;;;;;;;8.10;4.30;;;17.80;95.70;;;18.32;48.43;101129.34;5015209;27;97949;-72
2022/05/29 07:35:44;;;;;;;5.13;3.73;;;17.90;96.80;;;18.29;48.23;101134.88;5014796;27;101022;-72
2022/05/29 07:38:11;;;;;;;2.40;1.50;;;17.80;96.70;;;18.31;48.45;101122.28;5007011;27;119191;-72
2022/05/29 07:40:37;;;;;;;4.77;3.10;;;17.80;97.30;;;18.33;48.33;101129.25;5020477;27;97332;-72
2022/05/29 07:43:19;;;;;;;6.37;4.10;;;17.80;97.50;;;18.28;47.95;101126.00;5026169;27;113568;-72
2022/05/29 07:45:59;;;;;;;4.90;2.57;;;17.80;96.20;;;18.35;48.16;101126.47;5024311;27;100322;-72
2022/05/29 07:48:28;;;;;;;6.10;3.90;;;17.80;97.10;;;18.34;48.10;101130.13;5040579;27;97195;-71
2022/05/29 07:50:55;;;;;;;6.50;3.43;;;17.90;97.50;;;18.43;48.00;101127.75;5040502;27;96755;-71
2022/05/29 07:53:21;;;;;;;6.37;4.20;;;18.00;97.00;;;18.54;47.73;101129.78;5040764;27;99091;-71
2022/05/29 07:55:47;;;;;;;4.10;2.83;;;18.30;96.50;;;18.53;47.64;101127.19;5044621;27;96063;-71
2022/05/29 07:58:14;;;;;;;3.47;2.10;;;18.20;96.30;;;18.62;47.33;101127.47;5039530;27;116582;-72
2022/05/29 08:00:41;;;;;;;3.73;1.70;;;18.40;96.40;;;18.68;47.07;101124.47;5021895;27;96954;-72
2022/05/29 08:03:07;;;;;;;3.10;1.40;;;18.60;95.60;;;18.75;46.84;101124.06;5014821;27;98043;-72
2022/05/29 08:05:37;;;;;;;4.43;1.60;;;18.60;95.90;;;18.78;47.14;101123.88;5016327;27;97546;-72
2022/05/29 08:08:08;;;;;;;3.23;1.60;;;18.70;95.80;;;18.76;46.37;101129.31;5015823;27;97423;-72
2022/05/29 08:10:37;;;;;;;3.60;1.47;;;18.70;95.40;;;18.76;45.26;101123.13;5023070;27;96727;-71
2022/05/29 08:13:04;;;;;;;2.67;1.33;;;18.70;94.10;;;18.82;46.76;101128.09;5023294;27;97263;-72
2022/05/29 08:15:29;;;;;;;3.43;1.30;;;18.70;95.60;;;18.81;46.91;101129.91;5026721;27;96982;-72
2022/05/29 08:17:55;;;;;;;3.30;1.50;;;18.60;95.70;;;18.71;47.21;101121.59;5015178;27;96841;-72
2022/05/29 08:20:22;;;;;;;4.23;1.67;;;18.50;96.20;;;18.77;46.90;101124.84;5012933;27;96876;-72
2022/05/29 08:22:47;;;;;;;3.73;2.30;;;18.60;96.10;;;18.79;46.79;101122.94;5016068;27;98724;-72
2022/05/29 08:30:54;;;;;;;4.60;2.53;;;18.70;94.70;;;18.78;46.82;101115.88;5009351;27;96821;-72
2022/05/29 08:33:30;;;;;;;4.17;2.40;;;18.50;95.40;;;18.65;47.02;101111.28;5011758;27;99807;-72
2022/05/29 08:36:10;;;;;;;4.13;2.83;;;18.30;95.40;;;18.46;47.08;101109.81;5018695;27;97106;-72
2022/05/29 08:38:40;;;;;;;3.47;1.83;;;18.00;96.20;;;18.32;46.89;101106.19;4998969;27;96750;-72
2022/05/29 08:41:13;;;;;;;5.23;2.27;;;17.90;96.30;;;18.39;48.02;101102.19;5033203;27;102523;-72
2022/05/29 08:44:10;;;;;;;2.83;1.83;;;18.10;96.90;;;18.50;47.44;101098.84;5027363;27;101010;-72
2022/05/29 08:46:49;;;;;;;4.43;2.63;;;18.30;96.30;;;18.38;44.89;101091.59;5021239;27;101667;-72
2022/05/29 08:49:20;;;;;;;6.03;2.63;;;18.30;94.10;;;18.40;47.49;101090.56;5031884;27;97226;-72
2022/05/29 08:52:03;;;;;;;2.97;2.20;;;18.10;95.90;;;18.50;47.26;101085.47;5025078;27;99127;-72
2022/05/29 08:54:46;;;;;;;2.77;2.20;;;18.20;95.90;;;18.59;47.40;101095.63;5019756;27;100126;-72
2022/05/29 08:57:37;;;;;;;4.57;2.20;;;18.40;96.00;;;18.73;47.27;101094.78;5017787;27;99495;-72
2022/05/29 09:00:32;;;;;;;4.27;1.93;;;18.60;96.00;;;18.79;46.99;101090.84;5038642;27;96916;-75
2022/05/29 09:03:26;;;;;;;5.23;2.60;;;18.60;95.80;;;18.86;46.90;101095.72;5008824;27;96917;-72
2022/05/29 09:06:10;;;;;;;9.47;3.47;;;18.80;95.50;;;18.92;46.69;101086.44;4997519;27;101016;-75
2022/05/29 09:08:48;;;;;;;4.57;2.80;;;18.80;95.60;;;18.97;46.39;101089.72;4997212;27;102999;-74
2022/05/29 09:11:26;;;;;;;7.90;4.27;;;18.90;95.40;;;18.98;46.55;101088.75;5000203;27;97148;-75
2022/05/29 09:14:05;;;;;;;4.67;2.67;;;18.90;95.10;;;19.02;46.51;101088.44;5020379;27;99433;-75
2022/05/29 09:16:45;;;;;;;7.40;2.93;;;18.90;95.20;;;19.02;46.41;101087.59;4995856;27;98091;-74
2022/05/29 09:19:41;;;;;;;4.40;2.40;;;18.90;94.90;;;19.07;46.27;101080.13;5002241;27;112777;-74
2022/05/29 09:22:16;;;;;;;5.80;3.40;;;18.90;95.30;;;19.04;46.20;101085.69;5003403;27;97373;-74
2022/05/29 09:25:10;;;;;;;5.73;2.90;;;18.90;95.00;;;19.01;43.45;101085.88;5000569;27;97312;-74
2022/05/29 09:27:41;;;;;;;5.97;3.03;;;18.90;95.30;;;18.95;46.65;101091.59;4986480;27;104121;-76
2022/05/29 09:30:08;;;;;;;3.17;1.90;;;18.70;95.60;;;18.95;46.51;101087.13;5003342;27;98149;-75
2022/05/29 09:32:47;;;;;;;6.27;2.87;;;18.70;94.50;;;19.00;46.47;101085.03;5000369;27;97974;-75
2022/05/29 09:35:31;;;;;;;6.57;3.20;;;18.80;95.00;;;19.01;45.91;101075.19;5000435;27;97521;-75
2022/05/29 09:38:21;;;;;;;7.50;4.43;;;18.80;94.10;;;18.82;43.86;101069.31;5001821;27;98158;-74
2022/05/29 09:41:02;;;;;;;6.47;3.20;;;18.60;93.60;;;18.78;46.95;101068.63;5000173;27;103418;-75
2022/05/29 09:43:29;;;;;;;14.03;8.63;;;18.50;95.80;;;18.74;46.02;101061.75;5000589;27;98333;-75
2022/05/29 09:45:55;;;;;;;4.90;2.27;;;18.50;95.10;;;18.73;47.24;101055.56;5004691;27;97271;-74
2022/05/29 09:51:31;;;;;;;6.27;4.30;;;18.50;96.00;;;18.84;45.74;101062.03;5006219;27;98125;-75
2022/05/29 09:54:01;;;;;;;7.37;4.30;;;18.70;94.70;;;18.70;46.82;101061.09;5001207;27;97915;-75
2022/05/29 09:56:33;;;;;;;5.73;4.63;;;18.50;95.30;;;18.69;45.06;101059.38;4998176;27;102656;-75
2022/05/29 09:59:12;;;;;;;9.80;6.43;;;18.40;93.70;;;18.53;41.31;101053.25;4987203;28;97474;-74
2022/05/29 10:01:42;;;;;;;4.77;3.00;;;18.30;91.80;;;18.57;46.98;101060.13;4998717;27;101388;-74
2022/05/29 10:04:21;;;;;;;8.47;6.13;;;18.20;95.60;;;18.43;45.60;101055.63;4986610;28;97988;-74
2022/05/29 10:06:53;;;;;;;7.87;6.03;;;18.00;94.40;;;18.40;45.11;101053.16;4999644;27;99004;-72
2022/05/29 10:09:23;;;;;;;3.57;2.43;;;18.00;94.50;;;18.49;46.95;101058.88;4997467;27;97570;-72
2022/05/29 10:12:13;;;;;;;4.37;3.80;;;18.10;95.00;;;18.34;45.82;101071.34;5002103;27;99051;-72
2022/05/29 10:14:42;;;;;;;4.17;2.20;;;18.00;95.20;;;18.21;47.78;101083.75;5000093;27;98326;-71
2022/05/29 10:17:28;;;;;;;3.80;1.40;;;17.90;96.50;;;18.10;47.67;101079.06;5004112;27;97767;-72
2022/05/29 10:19:55;;;;;;;2.30;1.23;;;17.70;96.70;;;18.25;48.09;101075.47;4978274;27;102086;-72
2022/05/29 10:22:30;;;;;;;2.10;1.40;;;18.00;96.90;;;18.40;47.96;101073.66;4981101;27;104921;-72
2022/05/29 10:24:56;;;;;;;1.50;1.13;;;18.20;96.60;;;18.48;47.80;101071.38;5000459;27;98795;-72
2022/05/29 10:27:35;;;;;;;1.77;1.67;;;18.40;96.30;;;18.58;47.54;101071.66;5013032;27;96861;-72
2022/05/29 10:30:30;;;;;;;1.60;1.13;;;18.50;96.30;;;18.65;47.30;101063.19;4984644;28;98664;-72
2022/05/29 10:33:09;;;;;;;2.87;1.60;;;18.50;95.70;;;18.67;47.33;101061.31;4985324;28;102007;-72
2022/05/29 10:35:38;;;;;;;1.33;1.00;;;18.60;96.10;;;18.74;47.46;101061.75;4996878;27;97520;-72
2022/05/29 10:38:19;;;;;;;3.57;2.07;;;18.60;95.90;;;18.77;47.05;101055.34;4998561;27;100033;-72
2022/05/29 10:40:49;;;;;;;2.33;1.70;;;18.70;95.80;;;18.78;47.17;101054.41;4997640;27;102253;-72
2022/05/29 10:43:46;;;;;;;2.43;1.70;;;18.70;95.70;;;18.90;46.77;101048.28;4995855;27;98021;-72
2022/05/29 10:46:21;;;;;;;2.00;1.50;;;18.80;95.70;;;18.88;47.13;101045.72;4997139;27;98892;-75
2022/05/29 10:49:24;;;;;;;1.93;1.30;;;18.70;96.20;;;18.86;47.03;101039.59;5000257;27;97168;-72
2022/05/29 10:52:05;;;;;;;2.87;1.47;;;18.60;96.40;;;18.86;47.09;101044.09;4945120;27;101682;-72
2022/05/29 10:55:07;;;;;;;2.73;1.60;;;18.60;96.20;;;18.88;46.97;101053.72;4996094;27;98859;-72
2022/05/29 10:58:03;;;;;;;2.80;1.87;;;18.70;95.40;;;18.84;47.23;101046.00;4998026;27;98373;-72
2022/05/29 11:03:17;;;;;;;3.73;1.80;;;18.60;96.10;;;18.81;47.12;101040.88;4997455;27;97231;-72
2022/05/29 11:04:00;;;;;;;4.00;2.27;;;18.60;96.10;;;18.88;47.38;101036.81;4995504;27;101352;-72
2022/05/29 11:07:05;;;;;;;2.70;1.50;;;18.80;96.00;;;18.98;46.74;101032.63;4998064;27;98832;-72